Dart — OUOV2 — position and weather

sailwx.info

Track history (hours):
 
Tides and Currents Weather Stations Pressure Air Temp Water Temp Dewpoint Dewpoint Depression Visibility Wind Speed Wind Dir Waves Ship Positions

Dart

Last reported at 2016-Jul-25 17:31 UTC. Time now 2016-Jul-25 17:53 UTC.
Position N 58°56' E 005°35'.

Length 66 m; draft 4.6 m.

Type: Tanker. MMSI: 219416000.

Date/timePositionNaut miles runAvg speedWind from/ knotsBaromVisibWave heightAir tempDewpointWater temp
2016-Jul-25 17:31N 58°56' E 005°35'0 0.0
2016-Jul-25 16:31N 58°56' E 005°35'0 0.0
2016-Jul-25 15:31N 58°56' E 005°35'0 0.0
2016-Jul-25 14:31N 58°56' E 005°35'0 0.0
2016-Jul-25 13:31N 58°56' E 005°35'0 0.0
2016-Jul-25 12:31N 58°56' E 005°35'0 0.0
2016-Jul-25 11:31N 58°56' E 005°35'0 0.0
2016-Jul-25 10:28N 58°56' E 005°35'0 0.0
2016-Jul-25 09:31N 58°56' E 005°35'0 0.0
2016-Jul-25 08:31N 58°56' E 005°35'0 0.0
2016-Jul-25 07:31N 58°56' E 005°35'0 0.0
2016-Jul-25 06:31N 58°56' E 005°35'0 0.0
2016-Jul-25 05:28N 58°56' E 005°35'0 0.0
2016-Jul-25 04:31N 58°56' E 005°35'0 0.0
2016-Jul-25 03:31N 58°56' E 005°35'0 0.3
2016-Jul-25 02:32N 58°56' E 005°36'0 0.0
2016-Jul-25 01:32N 58°56' E 005°36'0 0.0
2016-Jul-25 00:32N 58°56' E 005°36'0 0.0
2016-Jul-24 23:32N 58°56' E 005°36'0 0.1
2016-Jul-24 22:32N 58°56' E 005°35'0 0.0
2016-Jul-24 21:32N 58°56' E 005°35'0 0.0
2016-Jul-24 20:32N 58°56' E 005°35'0 0.0
2016-Jul-24 19:32N 58°56' E 005°35'0 0.0
2016-Jul-24 18:29N 58°56' E 005°35'0 0.0
2016-Jul-24 17:32N 58°56' E 005°35'0 0.1
2016-Jul-24 16:32N 58°56' E 005°36'0 0.0
2016-Jul-24 15:32N 58°56' E 005°36'1 1.4
2016-Jul-24 14:34N 58°56' E 005°33'1010.0
2016-Jul-24 13:34N 59°06' E 005°30'9 8.6
2016-Jul-24 12:33N 59°13' E 005°20'19 9.5
2016-Jul-24 10:33N 59°32' E 005°12'9 9.5
2016-Jul-24 09:33N 59°40' E 005°22'9 8.4
2016-Jul-24 08:32N 59°49' E 005°19'  
2016-Jul-20 22:32N 59°52' E 005°33'9 9.0
2016-Jul-20 21:33N 59°43' E 005°28'10 9.8
2016-Jul-20 20:29N 59°35' E 005°15'17 5.1
2016-Jul-20 17:07N 59°18' E 005°20'610.9
2016-Jul-20 16:33N 59°12' E 005°21'1010.2
2016-Jul-20 15:33N 59°02' E 005°20'1110.7
2016-Jul-20 14:33N 58°51' E 005°23'1111.3
2016-Jul-20 13:33N 58°40' E 005°29'1211.7
2016-Jul-20 12:33N 58°29' E 005°36'1111.1
2016-Jul-20 11:33N 58°19' E 005°42'1010.4
2016-Jul-20 10:33N 58°08' E 005°42'1210.3
2016-Jul-20 09:21N 57°56' E 005°41'1010.7
2016-Jul-20 08:23N 57°46' E 005°40'910.5
2016-Jul-20 07:33N 57°37' E 005°39'10710.6
2016-Jul-19 21:23N 55°50' E 005°24'1010.3
2016-Jul-19 20:24N 55°40' E 005°22'4410.3
2016-Jul-19 16:05N 54°56' E 005°16'2710.2
2016-Jul-19 13:24N 54°28' E 005°12'910.1
2016-Jul-19 12:31N 54°19' E 005°11'1010.1
2016-Jul-19 11:33N 54°10' E 005°09'1010.1
2016-Jul-19 10:34N 53°60' E 005°05'1010.3
2016-Jul-19 09:34N 53°50' E 004°59'1010.3
2016-Jul-19 08:33N 53°41' E 004°53'1010.4
2016-Jul-19 07:33N 53°31' E 004°47'3411.4
2016-Jul-19 04:34N 52°60' E 004°23'1212.1
2016-Jul-19 03:33N 52°49' E 004°14'1211.8
2016-Jul-19 02:33N 52°39' E 004°03'1211.5
2016-Jul-19 01:33N 52°29' E 003°55'1111.4
2016-Jul-19 00:33N 52°17' E 003°53'1110.9
2016-Jul-18 23:34N 52°07' E 003°55'9 8.8
2016-Jul-18 22:34N 51°60' E 004°03'1211.6
2016-Jul-18 21:34N 51°54' E 004°19'9 8.8
2016-Jul-18 20:33N 51°50' E 004°32'8 8.2
2016-Jul-18 19:34N 51°42' E 004°37'1 0.6
2016-Jul-18 18:30N 51°42' E 004°36'0 0.0
2016-Jul-18 17:33N 51°42' E 004°36'0 0.0
2016-Jul-18 16:33N 51°42' E 004°36'0 0.0
2016-Jul-18 15:33N 51°42' E 004°36'0 0.0
2016-Jul-18 14:30N 51°42' E 004°36'0 0.0
2016-Jul-18 13:33N 51°42' E 004°36'0 0.0
2016-Jul-18 12:33N 51°42' E 004°36'0 0.0
2016-Jul-18 11:30N 51°42' E 004°36'0 0.0
2016-Jul-18 10:33N 51°42' E 004°36'0 0.0
2016-Jul-18 09:33N 51°42' E 004°36'0 0.0
2016-Jul-18 08:33N 51°42' E 004°36'0 0.0
2016-Jul-18 07:33N 51°42' E 004°36'2 1.6
2016-Jul-18 06:33N 51°43' E 004°37'7 6.6
2016-Jul-18 05:34N 51°49' E 004°34'8 7.8
2016-Jul-18 04:34N 51°51' E 004°21'8 7.6
2016-Jul-18 03:33N 51°56' E 004°12'8 8.2
2016-Jul-18 02:34N 51°60' E 004°01'9 8.7
2016-Jul-18 01:34N 52°02' E 003°47'9 8.5
2016-Jul-18 00:32N 52°11' E 003°47'8 8.3
2016-Jul-17 23:33N 52°19' E 003°48'9 9.3
2016-Jul-17 22:33N 52°28' E 003°51'1010.0
2016-Jul-17 21:33N 52°38' E 003°54'1010.4
2016-Jul-17 20:34N 52°48' E 003°58'45 8.8
2016-Jul-17 15:29N 53°27' E 004°35'17 8.7
2016-Jul-17 13:33N 53°43' E 004°44'9 9.2
2016-Jul-17 12:34N 53°51' E 004°50'12 9.4
2016-Jul-17 11:19N 54°02' E 004°56'7 9.1
2016-Jul-17 10:31N 54°10' E 004°58'251 9.0
2016-Jul-16 06:32N 58°21' E 005°10'16 8.2
2016-Jul-16 04:34N 58°35' E 005°25'8 7.8
2016-Jul-16 03:34N 58°43' E 005°28'8 7.7
2016-Jul-16 02:34N 58°50' E 005°27'9 8.7
2016-Jul-16 01:34N 58°59' E 005°33'4 3.9
2016-Jul-16 00:34N 58°60' E 005°40'0 0.0
2016-Jul-15 23:32N 58°60' E 005°40'0 0.2
2016-Jul-15 22:33N 59°00' E 005°40'4 4.3
2016-Jul-15 21:33N 58°58' E 005°33'3 2.5
2016-Jul-15 20:31N 58°55' E 005°36'0 0.0
2016-Jul-15 19:31N 58°55' E 005°36'0 0.0
2016-Jul-15 18:31N 58°55' E 005°36'  
Track history (hours):
 
Tides and Currents Weather Stations Pressure Air Temp Water Temp Dewpoint Dewpoint Depression Visibility Wind Speed Wind Dir Waves Ship Positions

Dart

Last reported at 2016-Jul-25 17:31 UTC. Time now 2016-Jul-25 17:53 UTC.
Position N 58°56' E 005°35'.

Length 66 m; draft 4.6 m.

Type: Tanker. MMSI: 219416000.

Date/timePositionNaut miles runAvg speedWind from/ knotsBaromVisibWave heightAir tempDewpointWater temp
2016-Jul-25 17:31N 58°56' E 005°35'0 0.0
2016-Jul-25 16:31N 58°56' E 005°35'0 0.0
2016-Jul-25 15:31N 58°56' E 005°35'0 0.0
2016-Jul-25 14:31N 58°56' E 005°35'0 0.0
2016-Jul-25 13:31N 58°56' E 005°35'0 0.0
2016-Jul-25 12:31N 58°56' E 005°35'0 0.0
2016-Jul-25 11:31N 58°56' E 005°35'0 0.0
2016-Jul-25 10:28N 58°56' E 005°35'0 0.0
2016-Jul-25 09:31N 58°56' E 005°35'0 0.0
2016-Jul-25 08:31N 58°56' E 005°35'0 0.0
2016-Jul-25 07:31N 58°56' E 005°35'0 0.0
2016-Jul-25 06:31N 58°56' E 005°35'0 0.0
2016-Jul-25 05:28N 58°56' E 005°35'0 0.0
2016-Jul-25 04:31N 58°56' E 005°35'0 0.0
2016-Jul-25 03:31N 58°56' E 005°35'0 0.3
2016-Jul-25 02:32N 58°56' E 005°36'0 0.0
2016-Jul-25 01:32N 58°56' E 005°36'0 0.0
2016-Jul-25 00:32N 58°56' E 005°36'0 0.0
2016-Jul-24 23:32N 58°56' E 005°36'0 0.1
2016-Jul-24 22:32N 58°56' E 005°35'0 0.0
2016-Jul-24 21:32N 58°56' E 005°35'0 0.0
2016-Jul-24 20:32N 58°56' E 005°35'0 0.0
2016-Jul-24 19:32N 58°56' E 005°35'0 0.0
2016-Jul-24 18:29N 58°56' E 005°35'0 0.0
2016-Jul-24 17:32N 58°56' E 005°35'0 0.1
2016-Jul-24 16:32N 58°56' E 005°36'0 0.0
2016-Jul-24 15:32N 58°56' E 005°36'1 1.4
2016-Jul-24 14:34N 58°56' E 005°33'1010.0
2016-Jul-24 13:34N 59°06' E 005°30'9 8.6
2016-Jul-24 12:33N 59°13' E 005°20'19 9.5
2016-Jul-24 10:33N 59°32' E 005°12'9 9.5
2016-Jul-24 09:33N 59°40' E 005°22'9 8.4
2016-Jul-24 08:32N 59°49' E 005°19'  
2016-Jul-20 22:32N 59°52' E 005°33'9 9.0
2016-Jul-20 21:33N 59°43' E 005°28'10 9.8
2016-Jul-20 20:29N 59°35' E 005°15'17 5.1
2016-Jul-20 17:07N 59°18' E 005°20'610.9
2016-Jul-20 16:33N 59°12' E 005°21'1010.2
2016-Jul-20 15:33N 59°02' E 005°20'1110.7
2016-Jul-20 14:33N 58°51' E 005°23'1111.3
2016-Jul-20 13:33N 58°40' E 005°29'1211.7
2016-Jul-20 12:33N 58°29' E 005°36'1111.1
2016-Jul-20 11:33N 58°19' E 005°42'1010.4
2016-Jul-20 10:33N 58°08' E 005°42'1210.3
2016-Jul-20 09:21N 57°56' E 005°41'1010.7
2016-Jul-20 08:23N 57°46' E 005°40'910.5
2016-Jul-20 07:33N 57°37' E 005°39'10710.6
2016-Jul-19 21:23N 55°50' E 005°24'1010.3
2016-Jul-19 20:24N 55°40' E 005°22'4410.3
2016-Jul-19 16:05N 54°56' E 005°16'2710.2
2016-Jul-19 13:24N 54°28' E 005°12'910.1
2016-Jul-19 12:31N 54°19' E 005°11'1010.1
2016-Jul-19 11:33N 54°10' E 005°09'1010.1
2016-Jul-19 10:34N 53°60' E 005°05'1010.3
2016-Jul-19 09:34N 53°50' E 004°59'1010.3
2016-Jul-19 08:33N 53°41' E 004°53'1010.4
2016-Jul-19 07:33N 53°31' E 004°47'3411.4
2016-Jul-19 04:34N 52°60' E 004°23'1212.1
2016-Jul-19 03:33N 52°49' E 004°14'1211.8
2016-Jul-19 02:33N 52°39' E 004°03'1211.5
2016-Jul-19 01:33N 52°29' E 003°55'1111.4
2016-Jul-19 00:33N 52°17' E 003°53'1110.9
2016-Jul-18 23:34N 52°07' E 003°55'9 8.8
2016-Jul-18 22:34N 51°60' E 004°03'1211.6
2016-Jul-18 21:34N 51°54' E 004°19'9 8.8
2016-Jul-18 20:33N 51°50' E 004°32'8 8.2
2016-Jul-18 19:34N 51°42' E 004°37'1 0.6
2016-Jul-18 18:30N 51°42' E 004°36'0 0.0
2016-Jul-18 17:33N 51°42' E 004°36'0 0.0
2016-Jul-18 16:33N 51°42' E 004°36'0 0.0
2016-Jul-18 15:33N 51°42' E 004°36'0 0.0
2016-Jul-18 14:30N 51°42' E 004°36'0 0.0
2016-Jul-18 13:33N 51°42' E 004°36'0 0.0
2016-Jul-18 12:33N 51°42' E 004°36'0 0.0
2016-Jul-18 11:30N 51°42' E 004°36'0 0.0
2016-Jul-18 10:33N 51°42' E 004°36'0 0.0
2016-Jul-18 09:33N 51°42' E 004°36'0 0.0
2016-Jul-18 08:33N 51°42' E 004°36'0 0.0
2016-Jul-18 07:33N 51°42' E 004°36'2 1.6
2016-Jul-18 06:33N 51°43' E 004°37'7 6.6
2016-Jul-18 05:34N 51°49' E 004°34'8 7.8
2016-Jul-18 04:34N 51°51' E 004°21'8 7.6
2016-Jul-18 03:33N 51°56' E 004°12'8 8.2
2016-Jul-18 02:34N 51°60' E 004°01'9 8.7
2016-Jul-18 01:34N 52°02' E 003°47'9 8.5
2016-Jul-18 00:32N 52°11' E 003°47'8 8.3
2016-Jul-17 23:33N 52°19' E 003°48'9 9.3
2016-Jul-17 22:33N 52°28' E 003°51'1010.0
2016-Jul-17 21:33N 52°38' E 003°54'1010.4
2016-Jul-17 20:34N 52°48' E 003°58'45 8.8
2016-Jul-17 15:29N 53°27' E 004°35'17 8.7
2016-Jul-17 13:33N 53°43' E 004°44'9 9.2
2016-Jul-17 12:34N 53°51' E 004°50'12 9.4
2016-Jul-17 11:19N 54°02' E 004°56'7 9.1
2016-Jul-17 10:31N 54°10' E 004°58'251 9.0
2016-Jul-16 06:32N 58°21' E 005°10'16 8.2
2016-Jul-16 04:34N 58°35' E 005°25'8 7.8
2016-Jul-16 03:34N 58°43' E 005°28'8 7.7
2016-Jul-16 02:34N 58°50' E 005°27'9 8.7
2016-Jul-16 01:34N 58°59' E 005°33'4 3.9
2016-Jul-16 00:34N 58°60' E 005°40'0 0.0
2016-Jul-15 23:32N 58°60' E 005°40'0 0.2
2016-Jul-15 22:33N 59°00' E 005°40'4 4.3
2016-Jul-15 21:33N 58°58' E 005°33'3 2.5
2016-Jul-15 20:31N 58°55' E 005°36'0 0.0
2016-Jul-15 19:31N 58°55' E 005°36'0 0.0
2016-Jul-15 18:31N 58°55' E 005°36'  

Dump ship's entire track history